Main page
METAR-TAF:

METAR-TAF

Airports :

Ohrid "St. Paul the Apostle" Airport

Ohrid, Macedonia

latitude: 41-07N, longitude: 020-48E, elevation: 760 m

Current weather observation

The report was made 30 minutes ago, at 04:50 UTC
Wind 2 kt from variable directions
Temperature 16°C
Humidity 100%
Pressure 1014 hPa
Visibility 10 km or more
Scattered clouds at a height of 600 ft
Overcast at a height of 3200 ft

METAR: LWOH 190450Z VRB02KT 9999 SCT006 OVC032 16/16 Q1014

Time: 07:20 (05:20 UTC)

Forecast

The report was made 3 hours and 3 minutes ago, at 02:17 UTC
Forecast valid from 19 at 03 UTC to 20 at 03 UTC
Wind 2 kt from variable directions
Visibility 10 km or more
Few clouds at a height of 1000 ft
Broken clouds at a height of 3000 ft
Temporary
from 19 at 03 UTC to 19 at 09 UTC
Visibility: 5000 m
Broken clouds at a height of 1500 ft
Overcast at a height of 3000 ft
rain,

TAF: LWOH 190217Z 1903/2003 VRB02KT 9999 FEW010 BKN030 TEMPO 1903/1909 5000 RA BKN015 OVC030

Weather observations and forecasts of more than 4000 airports (METAR and TAF reports).

The available stations are represented by yellow and red dots on the map.

Hover mouse over dot to see the name of the station.

Then click to see weather observations and forecasts.

To change the map : click on the green buttons with a black cross to zoom in, on the green button with a dash to zoom out, or on the green arrows for adjacent maps.


METAR-TAF: